Time;durP1;ratioP1;P1;durP2;ratioP2;P2;SDS_P1;SDS_P2;PMS_P1;PMS_P2;Temp;Humidity;BMP_temperature;BMP_pressure;BME280_temperature;BME280_humidity;BME280_pressure;Samples;Min_cycle;Max_cycle;Signal;HPM_P1;HPM_P2
2020/12/07 00:05:33;;;;;;;;;41.50;36.25;;;;;;;;12585479;28;8868;-50
2020/12/07 00:11:34;;;;;;;;;41.25;35.50;;;;;;;;12584318;28;8882;-51
2020/12/07 00:17:35;;;;;;;;;40.50;38.50;;;;;;;;12586306;28;8838;-50
2020/12/07 00:23:37;;;;;;;;;24.67;22.00;;;;;;;;12576230;28;8826;-54
2020/12/07 00:29:38;;;;;;;;;46.33;40.67;;;;;;;;12584757;28;8834;-52
2020/12/07 00:35:40;;;;;;;;;44.00;37.00;;;;;;;;12585412;28;8866;-50
2020/12/07 00:41:41;;;;;;;;;42.00;40.67;;;;;;;;12583418;28;8995;-50
2020/12/07 00:47:42;;;;;;;;;48.25;42.50;;;;;;;;12584741;28;9851;-51
2020/12/07 00:53:44;;;;;;;;;45.33;44.33;;;;;;;;12573556;28;8853;-51
2020/12/07 00:59:45;;;;;;;;;25.25;22.25;;;;;;;;12581931;28;8949;-50
2020/12/07 01:05:47;;;;;;;;;48.50;40.00;;;;;;;;12582941;28;8857;-49
2020/12/07 01:11:58;;;;;;;;;34.50;31.00;;;;;;;;12574208;28;8858;-51
2020/12/07 01:18:07;;;;;;;;;50.67;43.67;;;;;;;;12575946;28;8814;-50
2020/12/07 01:24:09;;;;;;;;;38.25;34.50;;;;;;;;12567336;28;8910;-50
2020/12/07 01:30:10;;;;;;;;;37.25;30.75;;;;;;;;12575872;28;8829;-49
2020/12/07 01:36:13;;;;;;;;;45.75;35.25;;;;;;;;12582253;28;8829;-54
2020/12/07 01:42:14;;;;;;;;;35.75;32.75;;;;;;;;12579847;28;8844;-49
2020/12/07 01:48:16;;;;;;;;;36.00;31.00;;;;;;;;12569076;28;8849;-50
2020/12/07 01:54:18;;;;;;;;;46.00;39.00;;;;;;;;12567334;28;8945;-48
2020/12/07 02:00:25;;;;;;;;;38.00;27.75;;;;;;;;12567907;28;8846;-50
2020/12/07 02:06:37;;;;;;;;;30.33;24.33;;;;;;;;12580672;28;8845;-48
2020/12/07 02:12:39;;;;;;;;;35.75;32.00;;;;;;;;12578859;28;8834;-51
2020/12/07 02:18:41;;;;;;;;;36.00;32.33;;;;;;;;12580141;28;8846;-51
2020/12/07 02:24:43;;;;;;;;;32.67;25.67;;;;;;;;12570402;28;8834;-53
2020/12/07 02:30:57;;;;;;;;;38.50;36.75;;;;;;;;12564642;28;8891;-51
2020/12/07 02:36:59;;;;;;;;;32.33;29.33;;;;;;;;12563885;28;8864;-51
2020/12/07 02:43:01;;;;;;;;;46.67;43.00;;;;;;;;12571549;28;8952;-50
2020/12/07 02:49:05;;;;;;;;;31.33;27.00;;;;;;;;12565732;28;8845;-48
2020/12/07 02:55:11;;;;;;;;;34.25;31.25;;;;;;;;12564626;28;9602;-51
2020/12/07 03:01:15;;;;;;;;;27.00;26.00;;;;;;;;12574507;28;8868;-47
2020/12/07 03:07:17;;;;;;;;;37.25;32.75;;;;;;;;12572928;28;8964;-50
2020/12/07 03:13:23;;;;;;;;;41.25;35.00;;;;;;;;12576352;28;8857;-49
2020/12/07 03:19:32;;;;;;;;;33.50;29.25;;;;;;;;12577670;28;8829;-48
2020/12/07 03:25:35;;;;;;;;;26.00;23.75;;;;;;;;12584510;28;8870;-53
2020/12/07 03:31:39;;;;;;;;;37.00;32.00;;;;;;;;12570147;28;8928;-48
2020/12/07 03:37:43;;;;;;;;;24.00;24.00;;;;;;;;12578006;28;8846;-52
2020/12/07 03:43:45;;;;;;;;;39.00;36.75;;;;;;;;12577371;28;8838;-49
2020/12/07 03:49:48;;;;;;;;;35.75;33.50;;;;;;;;12570122;28;8841;-48
2020/12/07 03:55:52;;;;;;;;;41.00;38.00;;;;;;;;12568786;28;8842;-50
2020/12/07 04:01:58;;;;;;;;;33.25;29.25;;;;;;;;12571794;28;8838;-50
2020/12/07 04:08:02;;;;;;;;;27.25;23.25;;;;;;;;12569624;28;8858;-49
2020/12/07 04:14:04;;;;;;;;;34.00;30.50;;;;;;;;12578539;28;8948;-51
2020/12/07 04:20:06;;;;;;;;;44.33;33.00;;;;;;;;12584786;28;8841;-50
2020/12/07 04:26:07;;;;;;;;;33.67;30.67;;;;;;;;12583616;28;8925;-49
2020/12/07 04:32:08;;;;;;;;;34.00;33.33;;;;;;;;12584468;28;8952;-50
2020/12/07 04:38:10;;;;;;;;;30.00;25.67;;;;;;;;12583053;28;8984;-51
2020/12/07 04:44:11;;;;;;;;;36.25;27.00;;;;;;;;12583689;28;9573;-51
2020/12/07 04:50:12;;;;;;;;;28.33;27.33;;;;;;;;12583583;28;8936;-54
2020/12/07 04:56:14;;;;;;;;;42.33;36.00;;;;;;;;12582620;28;8911;-50
2020/12/07 05:02:16;;;;;;;;;34.67;28.00;;;;;;;;12571305;28;8853;-51
2020/12/07 05:08:17;;;;;;;;;38.50;32.00;;;;;;;;12569815;28;8845;-50
2020/12/07 05:14:18;;;;;;;;;35.50;33.00;;;;;;;;12575106;28;8854;-54
2020/12/07 05:20:23;;;;;;;;;44.33;37.67;;;;;;;;12583137;28;8862;-50
2020/12/07 05:26:26;;;;;;;;;25.25;23.00;;;;;;;;12581282;28;8936;-52
2020/12/07 05:32:33;;;;;;;;;37.67;33.67;;;;;;;;12582701;28;8821;-52
2020/12/07 05:38:35;;;;;;;;;20.75;16.50;;;;;;;;12575901;28;8841;-52
2020/12/07 05:44:39;;;;;;;;;36.00;33.00;;;;;;;;12580604;28;8845;-49
2020/12/07 05:50:43;;;;;;;;;36.67;33.67;;;;;;;;12580608;28;9583;-52
2020/12/07 05:56:51;;;;;;;;;42.33;35.33;;;;;;;;12579688;28;8841;-51
2020/12/07 06:02:53;;;;;;;;;26.50;24.50;;;;;;;;12580884;28;8838;-54
2020/12/07 06:08:56;;;;;;;;;16.00;13.67;;;;;;;;12579164;28;8846;-52
2020/12/07 06:14:58;;;;;;;;;34.67;34.33;;;;;;;;12571903;28;8861;-54
2020/12/07 06:21:11;;;;;;;;;32.00;26.00;;;;;;;;12580745;28;8858;-52
2020/12/07 06:27:15;;;;;;;;;41.33;39.00;;;;;;;;12579870;28;8833;-53
2020/12/07 06:33:16;;;;;;;;;38.50;31.00;;;;;;;;12580075;28;8849;-51
2020/12/07 06:39:18;;;;;;;;;40.33;32.33;;;;;;;;12579107;28;8842;-55
2020/12/07 06:45:30;;;;;;;;;37.00;34.67;;;;;;;;12578995;28;8846;-53
2020/12/07 06:51:33;;;;;;;;;29.00;25.00;;;;;;;;12588913;28;8830;-55
2020/12/07 06:57:46;;;;;;;;;27.33;24.33;;;;;;;;12588332;28;8842;-53
2020/12/07 07:03:55;;;;;;;;;67.67;47.33;;;;;;;;12589076;28;8964;-52
2020/12/07 07:09:58;;;;;;;;;37.67;36.33;;;;;;;;12578805;28;8854;-53
2020/12/07 07:16:00;;;;;;;;;42.50;35.75;;;;;;;;12588125;28;8861;-48
2020/12/07 07:22:02;;;;;;;;;33.50;28.75;;;;;;;;12585274;28;8861;-53
2020/12/07 07:28:08;;;;;;;;;45.33;37.33;;;;;;;;12583357;28;8853;-49
2020/12/07 07:34:09;;;;;;;;;35.75;31.00;;;;;;;;12583573;28;9587;-52
2020/12/07 07:40:15;;;;;;;;;36.50;28.00;;;;;;;;12580569;28;8846;-51
2020/12/07 07:46:18;;;;;;;;;35.00;31.75;;;;;;;;12583989;28;8829;-50
2020/12/07 08:17:59;;;;;;;;;19.25;17.50;;;;;;;;12573110;28;8865;-51
2020/12/07 08:24:09;;;;;;;;;24.25;21.50;;;;;;;;12572389;28;8870;-51
2020/12/07 08:30:10;;;;;;;;;28.00;24.00;;;;;;;;12582216;28;8865;-53
2020/12/07 08:36:12;;;;;;;;;27.25;24.00;;;;;;;;12574452;28;8872;-55
2020/12/07 08:42:15;;;;;;;;;21.75;20.25;;;;;;;;12580269;28;8826;-48
2020/12/07 08:48:16;;;;;;;;;27.25;21.75;;;;;;;;12579825;28;8951;-49
2020/12/07 08:54:17;;;;;;;;;18.75;15.50;;;;;;;;12580633;28;8849;-52
2020/12/07 09:00:19;;;;;;;;;30.75;23.00;;;;;;;;12580202;28;9612;-52
2020/12/07 09:06:20;;;;;;;;;23.25;20.75;;;;;;;;12577825;28;9771;-55
2020/12/07 09:12:22;;;;;;;;;22.50;19.00;;;;;;;;12578580;28;8842;-53
2020/12/07 09:18:23;;;;;;;;;26.50;22.00;;;;;;;;12576484;28;8928;-54
2020/12/07 09:24:25;;;;;;;;;25.00;22.00;;;;;;;;12571095;28;9046;-54
2020/12/07 09:30:27;;;;;;;;;22.00;20.50;;;;;;;;12573711;28;8860;-51
2020/12/07 09:36:28;;;;;;;;;24.50;22.25;;;;;;;;12576508;28;8838;-51
2020/12/07 09:42:30;;;;;;;;;26.75;25.00;;;;;;;;12576530;28;8841;-53
2020/12/07 09:48:33;;;;;;;;;22.50;20.00;;;;;;;;12573607;28;8841;-53
2020/12/07 09:54:37;;;;;;;;;25.00;25.00;;;;;;;;12572999;28;8854;-52
2020/12/07 10:00:39;;;;;;;;;24.75;23.00;;;;;;;;12574902;28;9646;-49
2020/12/07 10:06:41;;;;;;;;;29.25;24.25;;;;;;;;12575342;28;9393;-56
2020/12/07 10:12:42;;;;;;;;;34.75;27.75;;;;;;;;12575111;28;8861;-58
2020/12/07 10:18:43;;;;;;;;;27.33;27.00;;;;;;;;12576601;28;8833;-56
2020/12/07 10:24:46;;;;;;;;;28.75;23.00;;;;;;;;12573192;28;8853;-59
2020/12/07 10:30:47;;;;;;;;;31.50;30.50;;;;;;;;12576959;28;8822;-56
2020/12/07 10:36:49;;;;;;;;;26.00;25.00;;;;;;;;12574121;28;8829;-55
2020/12/07 10:42:50;;;;;;;;;27.00;25.00;;;;;;;;12574112;28;8849;-55
2020/12/07 10:48:52;;;;;;;;;41.00;32.00;;;;;;;;12574889;28;8842;-53
2020/12/07 10:54:54;;;;;;;;;33.50;29.00;;;;;;;;12574647;28;10007;-53
2020/12/07 11:00:56;;;;;;;;;30.50;26.75;;;;;;;;12577465;28;9598;-52
2020/12/07 11:07:00;;;;;;;;;37.75;36.50;;;;;;;;12560158;28;8989;-58
2020/12/07 11:13:09;;;;;;;;;36.50;32.25;;;;;;;;12562927;28;8842;-51
2020/12/07 11:19:10;;;;;;;;;28.00;27.50;;;;;;;;12569375;28;8854;-53
2020/12/07 11:25:12;;;;;;;;;27.33;22.67;;;;;;;;12571589;28;8857;-51
2020/12/07 11:31:16;;;;;;;;;31.00;28.00;;;;;;;;12573706;28;8944;-52
2020/12/07 11:37:18;;;;;;;;;42.50;34.75;;;;;;;;12579323;28;8910;-52
2020/12/07 11:49:37;;;;;;;;;34.00;29.25;;;;;;;;12582420;28;8840;-55
2020/12/07 11:55:40;;;;;;;;;36.00;26.50;;;;;;;;12582920;28;8926;-54
2020/12/07 12:01:42;;;;;;;;;39.33;38.67;;;;;;;;12582803;28;9711;-50
2020/12/07 12:07:43;;;;;;;;;36.67;31.67;;;;;;;;12580436;28;8849;-51
2020/12/07 12:13:47;;;;;;;;;38.00;33.00;;;;;;;;12581963;28;10045;-54
2020/12/07 12:19:49;;;;;;;;;41.50;36.25;;;;;;;;12581536;28;9599;-56
2020/12/07 12:25:50;;;;;;;;;40.67;37.00;;;;;;;;12578386;28;9284;-54
2020/12/07 12:31:52;;;;;;;;;33.67;33.67;;;;;;;;12580913;28;8856;-51
2020/12/07 12:37:53;;;;;;;;;33.25;28.50;;;;;;;;12578714;28;8849;-56
2020/12/07 12:43:55;;;;;;;;;37.00;32.75;;;;;;;;12580233;28;8893;-53
2020/12/07 12:49:56;;;;;;;;;30.67;30.67;;;;;;;;12579295;28;9579;-57
2020/12/07 12:55:58;;;;;;;;;34.00;31.00;;;;;;;;12570978;28;8829;-55
2020/12/07 13:01:59;;;;;;;;;45.67;43.67;;;;;;;;12570539;28;8849;-54
2020/12/07 13:08:01;;;;;;;;;30.00;29.33;;;;;;;;12576944;28;8952;-52
2020/12/07 13:14:03;;;;;;;;;34.00;28.00;;;;;;;;12578676;28;8947;-57
2020/12/07 13:20:08;;;;;;;;;42.33;34.67;;;;;;;;12578270;28;8834;-55
2020/12/07 13:32:29;;;;;;;;;30.33;26.33;;;;;;;;12578529;28;8893;-55
2020/12/07 13:38:31;;;;;;;;;47.00;45.00;;;;;;;;12573571;28;9006;-53
2020/12/07 13:44:32;;;;;;;;;29.00;23.33;;;;;;;;12575411;28;9544;-53
2020/12/07 13:50:34;;;;;;;;;40.00;33.33;;;;;;;;12575949;28;8899;-56
2020/12/07 13:56:44;;;;;;;;;30.67;27.00;;;;;;;;12566007;28;8906;-56
2020/12/07 14:02:45;;;;;;;;;37.00;34.33;;;;;;;;12576439;28;8838;-55
2020/12/07 14:08:47;;;;;;;;;38.67;32.67;;;;;;;;12575173;28;8837;-56
2020/12/07 14:14:49;;;;;;;;;50.67;39.67;;;;;;;;12575412;28;8833;-55
2020/12/07 14:46:04;;;;;;;;;41.67;40.33;;;;;;;;12576794;28;8852;-56
2020/12/07 14:52:08;;;;;;;;;30.33;27.33;;;;;;;;12575605;28;8995;-53
2020/12/07 15:16:54;;;;;;;;;34.67;30.67;;;;;;;;12588434;28;8850;-56
2020/12/07 15:22:55;;;;;;;;;26.67;26.67;;;;;;;;12586799;28;8992;-55
2020/12/07 15:28:56;;;;;;;;;35.00;35.00;;;;;;;;12588457;28;8842;-55
2020/12/07 15:34:58;;;;;;;;;30.33;30.33;;;;;;;;12578404;28;8910;-54
2020/12/07 15:40:59;;;;;;;;;38.67;30.67;;;;;;;;12586281;28;8894;-55
2020/12/07 15:47:00;;;;;;;;;37.67;33.00;;;;;;;;12589004;28;8960;-57
2020/12/07 15:53:02;;;;;;;;;26.67;21.33;;;;;;;;12579594;28;8906;-56
2020/12/07 15:59:04;;;;;;;;;37.33;33.67;;;;;;;;12586699;28;8924;-55
2020/12/07 16:05:06;;;;;;;;;25.00;25.00;;;;;;;;12584692;28;8857;-54
2020/12/07 16:11:07;;;;;;;;;33.33;28.33;;;;;;;;12583727;28;8902;-56
2020/12/07 16:17:09;;;;;;;;;33.67;30.00;;;;;;;;12586457;28;8850;-55
2020/12/07 16:23:10;;;;;;;;;39.00;34.67;;;;;;;;12583054;28;8850;-53
2020/12/07 16:29:11;;;;;;;;;29.67;27.00;;;;;;;;12586145;28;8945;-57
2020/12/07 16:35:13;;;;;;;;;28.00;25.67;;;;;;;;12583662;28;8842;-55
2020/12/07 16:41:15;;;;;;;;;27.00;21.33;;;;;;;;12583533;28;8822;-57
2020/12/07 16:47:16;;;;;;;;;36.33;31.33;;;;;;;;12585294;28;8936;-56
2020/12/07 16:53:17;;;;;;;;;40.00;33.67;;;;;;;;12582679;28;8838;-55
2020/12/07 16:59:19;;;;;;;;;32.33;28.33;;;;;;;;12584257;28;8906;-59
2020/12/07 17:05:21;;;;;;;;;25.67;23.67;;;;;;;;12584318;28;8862;-55
2020/12/07 17:11:22;;;;;;;;;24.33;24.00;;;;;;;;12581735;28;8822;-54
2020/12/07 17:17:23;;;;;;;;;35.67;32.33;;;;;;;;12582749;28;8822;-55
2020/12/07 17:23:26;;;;;;;;;30.67;30.33;;;;;;;;12582520;28;8829;-55
2020/12/07 17:29:27;;;;;;;;;31.00;27.33;;;;;;;;12582073;28;8842;-56
2020/12/07 17:35:30;;;;;;;;;21.33;18.67;;;;;;;;12580999;28;8849;-57
2020/12/07 17:41:33;;;;;;;;;35.33;28.00;;;;;;;;12581634;28;8944;-53
2020/12/07 17:47:35;;;;;;;;;26.67;22.33;;;;;;;;12582336;28;8874;-53
2020/12/07 17:53:36;;;;;;;;;32.00;25.67;;;;;;;;12581403;28;8830;-55
2020/12/07 17:59:37;;;;;;;;;31.00;31.00;;;;;;;;12581542;28;8838;-53
2020/12/07 18:05:39;;;;;;;;;34.00;28.67;;;;;;;;12578882;28;8838;-54
2020/12/07 18:11:40;;;;;;;;;30.00;25.00;;;;;;;;12580245;28;9511;-54
2020/12/07 18:17:41;;;;;;;;;30.33;25.67;;;;;;;;12580336;28;8854;-53
2020/12/07 18:23:43;;;;;;;;;28.67;24.67;;;;;;;;12570390;28;8846;-49
2020/12/07 18:29:44;;;;;;;;;36.00;28.67;;;;;;;;12579918;28;8914;-51
2020/12/07 18:35:45;;;;;;;;;28.67;24.33;;;;;;;;12578758;28;8853;-54
2020/12/07 18:41:47;;;;;;;;;29.33;27.67;;;;;;;;12578081;28;8846;-56
2020/12/07 18:47:49;;;;;;;;;30.33;28.33;;;;;;;;12579258;28;8842;-53
2020/12/07 18:53:50;;;;;;;;;33.00;30.67;;;;;;;;12578572;28;8866;-54
2020/12/07 18:59:52;;;;;;;;;25.33;23.00;;;;;;;;12579476;28;8910;-52
2020/12/07 19:05:55;;;;;;;;;27.67;23.33;;;;;;;;12579847;28;8849;-55
2020/12/07 19:12:01;;;;;;;;;30.33;27.33;;;;;;;;12569982;28;8841;-55
2020/12/07 19:18:03;;;;;;;;;34.67;31.00;;;;;;;;12579070;28;8857;-51
2020/12/07 19:24:05;;;;;;;;;36.67;33.00;;;;;;;;12577001;28;8822;-53
2020/12/07 19:30:08;;;;;;;;;23.67;23.67;;;;;;;;12578967;28;8818;-53
2020/12/07 19:36:10;;;;;;;;;33.67;27.33;;;;;;;;12577824;28;8853;-58
2020/12/07 19:42:12;;;;;;;;;41.33;36.33;;;;;;;;12578184;28;8856;-56
2020/12/07 19:48:14;;;;;;;;;24.33;23.33;;;;;;;;12578079;28;8841;-51
2020/12/07 19:54:17;;;;;;;;;32.00;29.33;;;;;;;;12577248;28;8858;-54
2020/12/07 20:00:18;;;;;;;;;36.67;33.33;;;;;;;;12586489;28;8838;-53
2020/12/07 20:06:29;;;;;;;;;26.00;26.00;;;;;;;;12586034;28;8845;-54
2020/12/07 20:12:30;;;;;;;;;18.67;18.67;;;;;;;;12584639;28;8870;-55
2020/12/07 20:18:32;;;;;;;;;46.33;36.00;;;;;;;;12585934;28;8957;-53
2020/12/07 20:24:35;;;;;;;;;39.67;31.67;;;;;;;;12584902;28;8833;-55
2020/12/07 20:30:36;;;;;;;;;36.67;30.33;;;;;;;;12585616;28;9003;-50
2020/12/07 20:36:38;;;;;;;;;32.33;30.00;;;;;;;;12583655;28;8830;-53
2020/12/07 20:42:40;;;;;;;;;18.33;16.00;;;;;;;;12583224;28;8842;-50
2020/12/07 20:48:41;;;;;;;;;27.33;20.67;;;;;;;;12584557;28;8837;-53
2020/12/07 20:54:43;;;;;;;;;23.67;22.00;;;;;;;;12583296;28;8940;-50
2020/12/07 21:00:44;;;;;;;;;27.33;24.33;;;;;;;;12584390;28;8830;-51
2020/12/07 21:06:46;;;;;;;;;30.67;28.33;;;;;;;;12581845;28;8853;-50
2020/12/07 21:12:47;;;;;;;;;18.33;18.33;;;;;;;;12581816;28;8830;-57
2020/12/07 21:18:48;;;;;;;;;30.00;28.00;;;;;;;;12583182;28;8864;-52
2020/12/07 21:24:50;;;;;;;;;28.00;24.00;;;;;;;;12581791;28;8948;-52
2020/12/07 21:30:52;;;;;;;;;34.00;30.33;;;;;;;;12583015;28;8830;-51
2020/12/07 21:36:53;;;;;;;;;31.67;25.67;;;;;;;;12581602;28;8854;-53
2020/12/07 21:42:55;;;;;;;;;29.67;23.33;;;;;;;;12580290;28;8868;-51
2020/12/07 21:48:57;;;;;;;;;33.33;27.67;;;;;;;;12581812;28;8898;-51
2020/12/07 21:54:58;;;;;;;;;37.00;31.00;;;;;;;;12579310;28;8852;-52
2020/12/07 22:01:00;;;;;;;;;28.67;27.00;;;;;;;;12573383;28;9653;-53
2020/12/07 22:07:02;;;;;;;;;30.00;29.33;;;;;;;;12579257;28;8852;-50
2020/12/07 22:13:03;;;;;;;;;18.67;17.67;;;;;;;;12579058;28;8854;-50
2020/12/07 22:19:04;;;;;;;;;29.33;25.00;;;;;;;;12580417;28;8841;-52
2020/12/07 22:25:12;;;;;;;;;29.33;26.33;;;;;;;;12579930;28;8845;-53
2020/12/07 22:31:14;;;;;;;;;13.67;13.00;;;;;;;;12580009;28;8822;-55
2020/12/07 22:37:15;;;;;;;;;24.33;18.00;;;;;;;;12578603;28;8837;-51
2020/12/07 22:43:17;;;;;;;;;27.00;22.00;;;;;;;;12579127;28;8936;-51
2020/12/07 22:49:18;;;;;;;;;22.67;15.67;;;;;;;;12580152;28;8912;-51
2020/12/07 22:55:19;;;;;;;;;27.00;24.00;;;;;;;;12577425;28;8936;-50
2020/12/07 23:01:22;;;;;;;;;30.33;28.00;;;;;;;;12578814;28;8964;-49
2020/12/07 23:07:24;;;;;;;;;22.00;18.00;;;;;;;;12578299;28;8826;-53
2020/12/07 23:13:25;;;;;;;;;30.33;27.67;;;;;;;;12578772;28;8882;-53
2020/12/07 23:19:27;;;;;;;;;31.33;25.00;;;;;;;;12576970;28;9598;-52
2020/12/07 23:25:28;;;;;;;;;33.33;25.67;;;;;;;;12577598;28;8837;-45
2020/12/07 23:31:32;;;;;;;;;24.00;22.67;;;;;;;;12583050;28;8825;-50
2020/12/07 23:37:33;;;;;;;;;27.67;27.33;;;;;;;;12586838;28;8947;-52
2020/12/07 23:43:35;;;;;;;;;24.00;21.00;;;;;;;;12586106;28;8818;-49
2020/12/07 23:49:36;;;;;;;;;24.67;23.33;;;;;;;;12586952;28;8842;-47
2020/12/07 23:55:41;;;;;;;;;25.00;24.00;;;;;;;;12585821;28;8834;-49
